Главная страница
METAR-TAF:

METAR-TAF

Аэропорты :

Париж — Шарль-де-Голль, Франция

широта: 49-01N, долгота: 002-32E, высота над уровнем моря: 118 м

Текущие метеонаблюдения

Эта сводка был подготовлена 26 минут назад, в 07:00 UTC
Ветер 11 Узел от западно-северо-западный
Температура 13°C
Влажность 72%
Давление 1018 hPa
Видимость 10 км и более
небольшая облачность на высоте 1200 фута
Рассеянная облачность на высоте 3600 фута

METAR: LFPG 230700Z 30011KT 9999 FEW012 BKN036 13/08 Q1018 NOSIG

Время: 09:26 (07:26 UTC)

Прогноз

Эта сводка был подготовлена 2 часа и 26 минут назад, в 05:00 UTC
Прогноз действительный с 23-го 06 UTC до 24-го 12 UTC
Ветер 5 Узел от западно-северо-западный
Видимость 10 км и более
Рассеянная облачность на высоте 4000 фута
Вероятность 30% :
временами
С 23-го 06 UTC до 23-го 07 UTC
Рассеянная облачность на высоте 1000 фута

TAF: LFPG 230500Z 2306/2412 30005KT 9999 BKN040 PROB30 TEMPO 2306/2307 BKN010 TX19/2315Z TN09/2405Z

Метеонаблюдения и прогнозы для более 4000 аэропортов (сводки METAR и TAF).

Имеющиеся станции представлены на карте желтыми и красными точками.

Чтобы увидеть название станции, наведите на нее мышь.

Затем щелкните, чтобы увидеть метеонаблюдения и метеопрогнозы.

Управление картой: чтобы увеличить масштаб, щелкните зеленые кнопки с черным крестиком; чтобы уменьшить масштаб, щелкните зеленую кнопку с тире; для просмотра соседних карт щелкайте зеленые стрелки.


METAR-TAF: